• Join FlightAware (Why Join?)
  • Login
  • US Flag 
04:20PM EDT


 

Airport Tracker/Info


-or-


 

Live Flight TrackerFlight Track Log ✈ UAL1199 ✈ 06-Sep-2013 ✈ KEWR - KBOS

Flight Track Log - Related Links

Times and Time Zones

All times are in EDT time to prevent confusion due to time zone crossing. See the UAL1199 flight status page for this flight to view local times or setup timezone preferences in your user account.

Time Position Orientation Groundspeed Altitude Reporting Facility
EDT Latitude Longitude Course Direction KTS MPH feet Rate Location/Type
06:37AM 40.8955 -73.8014 54° Northeast  Level Estimated
06:38AM 40.9359 -73.7277 54° Northeast  Level Estimated
06:39AM 40.9763 -73.6539 54° Northeast  Level Estimated
06:40AM 41.0167 -73.5800 54° Northeast  Level Estimated
06:41AM 41.0570 -73.5060 54° Northeast  Level Estimated
06:42AM 41.0972 -73.4319 54° Northeast  Level Estimated
06:43AM 41.1375 -73.3577 54° Northeast  Level Estimated
06:44AM 41.1776 -73.2835 54° Northeast  Level Estimated
06:45AM 41.2178 -73.2091 54° Northeast  Level Estimated
06:46AM 41.2578 -73.1347 54° Northeast  Level Estimated
06:47AM 41.2978 -73.0601 54° Northeast  Level Estimated
06:48AM 41.3378 -72.9855 54° Northeast  Level Estimated
06:49AM 41.3778 -72.9108 55° Northeast  Level Estimated
06:50AM 41.4176 -72.8360 55° Northeast  Level Estimated
06:51AM 41.4575 -72.7611 55° Northeast  Level Estimated
06:52AM 41.4455 -72.6393 97° East  Level FlightAware Approximate
06:53AM 41.4372 -72.5090 56° Northeast  Level FlightAware Approximate
06:54AM 41.4500 -72.3913 90° East  Level FlightAware Approximate
06:55AM 41.4580 -72.2693 80° East  Level FlightAware Approximate
06:56AM 41.4847 -72.1532 63° Northeast  Level FlightAware Approximate
06:57AM 41.5268 -72.0438 63° Northeast  Level FlightAware Approximate
06:58AM 41.5668 -71.9331 66° East  Level FlightAware Approximate
06:59AM 41.6033 -71.8201 71° East  Level FlightAware Approximate
07:00AM 41.6326 -71.7033 71° East  Level FlightAware Approximate
07:01AM 41.6618 -71.5864 71° East  Level FlightAware Approximate
07:02AM 41.7020 -71.4608 66° East  Level FlightAware Approximate
07:03AM 41.7496 -71.3399 60° Northeast  Level FlightAware Approximate
07:04AM 41.8045 -71.2245 56° Northeast  Level FlightAware Approximate
07:05AM 41.8558 -71.1148 14° North  Level FlightAware Approximate
07:06AM 41.9529 -71.0990 14° North  Level FlightAware Approximate
07:07AM 41.9522 -71.0628 162° South  Level FlightAware Approximate
07:08AM 41.9096 -71.0353 357° North  Level FlightAware Approximate
07:09AM 42.0081 -71.0429 357° North  Level FlightAware Approximate